Lancaster, OH

9:07 PM EDT on July 26, 2017 (GMT -0400)
Fairfield County Weather | | Change Station

Elev 958 ft 39.75 °N, 82.57 °W | Updated 8 seconds ago

Partly Cloudy
Partly Cloudy
73.2 °F
Feels Like 74 °F
N
0.0
Wind Variable Wind from SW
Gusts 0.0 mph

Today
High -- | Low -- °F
--% Chance of Precip.
Yesterday
High -- | Low -- °F
Precip. -- in
Pressure 30.06 in
Visibility 10.0 miles
Clouds Clear
Heat Index 74 °F
Dew Point 66 °F
Humidity 77%
Rainfall 0.00 in
Snow Depth Not available.
6:24 AM 8:48 PM
Waxing Crescent, 17% visible
METAR KLHQ 270053Z AUTO 00000KT 10SM CLR 21/20 A3007 RMK AO2 SLP177 T02110200
Pressure 30.06 in
Visibility 10.0 miles
Clouds Clear
Heat Index 74 °F
Dew Point 66 °F
Humidity 77%
Rainfall 0.00 in
Snow Depth Not available.
6:24 AM 8:48 PM
Waxing Crescent, 17% visible
METAR KLHQ 270053Z AUTO 00000KT 10SM CLR 21/20 A3007 RMK AO2 SLP177 T02110200

Get Severe Weather Alerts

Thanks for signing up!

Be on the lookout for a verification email in your inbox.

You'll start receiving the daily forecast at 6 AM.

×

10-Day Weather Forecast

Almanac

Astronomy

Jul. 26, 2017 Rise Set
Actual Time
Civil Twilight
Nautical Twilight
Astronomical Twilight
Moon
Length of Visible Light
Length of Day
Tomorrow will be .
, % of the Moon is Illuminated

Today's Extremes

State Highs State Lows

Community

WunderPhotos

Category 6

Welcome to Category 6. This is the collective home for Weather Underground's featured writeups by Dr. Jeff Masters (right), Bob Henson (left), Chris Burt, and other regular contributors.

Nearby

Air Quality

  Air Quality AQ Index Pollutant
Not available.

Snow Depth

Station Depth Elevation

Earthquake Activity

City Distance Mag. Time & Date
Minimum magnitude displayed is 2.5.

Coastal Water Temperatures

Place Temperature

Stations

Nearby Weather Stations

Station Location Temp. Windchill Dew Point Humidity Wind Precip. Elev Updated Type
                   

Watches & Warnings

There are currently no watches in effect.